Terminal Aerodrome Forecast
Issued by NWS Springfield, MO

Home | Current Version | Previous Version | Text Only | Print | Product List | Glossary On
Versions: 1 2 3 4 5 6 7 8 9 10 11 12 13 14 15 16 17 18 19 20 21
606
FTUS43 KSGF 030731 AAC
TAFSGF
TAF AMD
KSGF 030731Z 0308/0406 VRB03KT P6SM SKC
      TEMPO 0308/0310 2SM BR BKN020
     FM031000 00000KT 4SM BR SKC
      TEMPO 0310/0314 1/2SM FG VV002
     FM031500 31005KT P6SM SCT025
     FM031800 31008KT P6SM SCT045
     FM040100 VRB04KT P6SM FEW050=

USA.gov is the U.S. government's official web portal to all federal, state and local government web resources and services.